Aérodrome :
LOGIN :

S'inscrire | Disclaimer

   EN    FR    IT 

 










Légende :    VFR   VFR Marginal   IFR   IFR Intensif   IFR Très Intensif
Visi : 
Plafond : 
>= 8 km
>= 3000ft
5 à 8 km
1000 à 3000 ft
1500m à 5 km
500 à 1000 ft
800 à 1500m
200 à 500 ft
< 800m
< 200 ft
Symboles :   Orages  Brouillard  Fortes neiges  Fortes précipitations  Vent > 20 kt
SIGMETs :   Divers  Orages  Givrage  Turbulence  Onde Orograph.  Cendres Volcan.






- Altitude de l'aérodrome : 147 ft
- Code IATA : DUS


EDDL - Düsseldorf Int.

DERNIER METAR :
  • 180420Z AUTO 13003KT 060V170 CAVOK 15/14 Q1014 NOSIG

METARs EXPIRÉS :
  • 180350Z AUTO 12003KT CAVOK 15/14 Q1014 NOSIG
  • 180320Z AUTO VRB01KT CAVOK 15/14 Q1014 NOSIG
  • 180250Z AUTO 13003KT CAVOK 14/14 Q1014 NOSIG
  • 180220Z AUTO 12003KT CAVOK 14/14 Q1014 NOSIG
  • 180150Z AUTO 10004KT CAVOK 13/13 Q1014 NOSIG
  • 180120Z AUTO 09002KT CAVOK 13/13 Q1014 NOSIG
  • 180050Z AUTO 08002KT CAVOK 13/12 Q1014 NOSIG
  • 180020Z AUTO VRB02KT CAVOK 13/13 Q1014 NOSIG
  • 172350Z AUTO 11003KT 050V140 CAVOK 13/12 Q1014 NOSIG

TAF TAF EDDL
Valide du 18 à 00h jusqu'au 19 à 06h UTC


172300Z 1800/1906 VRB03KT 9999 BKN040
BECMG 1804/1807 14005KT
BECMG 1810/1812 01006KT
TEMPO 1812/1821 4000 SHRA BKN020CB
PROB40
TEMPO 1812/1821 23020G35KT 2500 TSRA
PROB30
TEMPO 1817/1820 23025G45KT 1500 +TSRA BKN014CB
BECMG 1820/1823 BKN012
PROB40
TEMPO 1900/1906 4000 BR BKN008



MET'MAP, la Météo Aéronautique d'un coup d'oeil ! - Copyright ORBIFLY Décembre 2007 - Disclaimer

ORBIFLY MET'MAP TEAM :

Programmation & Développement : Alexandra Zaïnal
Sur une idée originale de : Baudouin d'Aumeries
Soutien technique & logistique : Manuel Goepfert
Assistance : Marc-Olivier Méhu




SOURCES & CREDITS :

   NOAA